PWSweather.com
Personal Weather Stations
Station Observations

ChardChardGB

Lat: 50.877408, Lon: -2.94964741

Elevation: 341

Station Type: WS3083

http://www.merriott-astro.co.uk/weather/index.htm

High Low Average
Temperature 56.1°F13.4°C 47.7°F8.7°C 51.8°F11.0°C
Dew Point 48.1°F8.9°C 38.7°F3.7°C 44.0°F6.7°C
Winds 20.0 mph 32.2 kmh 2.2 mph 3.5 kmh 11.0 mph W17.7 kmh W
Wind Gusts 27.3 mph43.9 kmh 4.5 mph7.2 kmh 15.0 mph24.1 kmh
Humidity 85% 60% 75%
Pressure 29.69 in1005.4 mb 29.44 in997.0 mb -
Precipitation 0.12 in3.0 mm - -
Hour Temp Dew Point Humidity Winds Wind Gusts Pressure Precip Precip Rate Daily Precip Total
12:00 AM 47.7°F8.7°C 38.7°F3.7°C 71% 5.4 mph SW8.7 kmh SW 9.2 mph14.8 kmh 29.69 in1005.4 mb 0.00 in0.0 mm 0.00 in0.0 mm 0.00 in0.0 mm
12:10 AM 47.7°F8.7°C 38.7°F3.7°C 71% 6.2 mph SW10.0 kmh SW 10.7 mph17.2 kmh 29.69 in1005.4 mb 0.00 in0.0 mm 0.00 in0.0 mm 0.00 in0.0 mm
12:20 AM 47.7°F8.7°C 38.7°F3.7°C 71% 6.9 mph WSW11.1 kmh WSW 9.2 mph14.8 kmh 29.68 in1005.1 mb 0.00 in0.0 mm 0.00 in0.0 mm 0.00 in0.0 mm
12:30 AM 47.7°F8.7°C 38.7°F3.7°C 71% 6.8 mph SW10.9 kmh SW 9.2 mph14.8 kmh 29.68 in1005.1 mb 0.00 in0.0 mm 0.00 in0.0 mm 0.00 in0.0 mm
12:40 AM 48.0°F8.9°C 38.7°F3.7°C 70% 10.1 mph W16.3 kmh W 13.6 mph21.9 kmh 29.68 in1005.1 mb 0.00 in0.0 mm 0.00 in0.0 mm 0.00 in0.0 mm
12:50 AM 48.0°F8.9°C 38.7°F3.7°C 70% 7.2 mph WSW11.6 kmh WSW 9.8 mph15.8 kmh 29.67 in1004.7 mb 0.00 in0.0 mm 0.00 in0.0 mm 0.00 in0.0 mm
01:00 AM 48.0°F8.9°C 39.1°F3.9°C 71% 8.0 mph W12.9 kmh W 11.4 mph18.3 kmh 29.67 in1004.7 mb 0.00 in0.0 mm 0.00 in0.0 mm 0.00 in0.0 mm
01:10 AM 48.2°F9.0°C 39.2°F4.0°C 71% 7.2 mph WSW11.6 kmh WSW 13.0 mph20.9 kmh 29.67 in1004.7 mb 0.00 in0.0 mm 0.00 in0.0 mm 0.00 in0.0 mm
01:20 AM 48.4°F9.1°C 39.4°F4.1°C 71% 6.9 mph NW11.1 kmh NW 8.3 mph13.4 kmh 29.66 in1004.4 mb 0.00 in0.0 mm 0.00 in0.0 mm 0.00 in0.0 mm
01:30 AM 48.4°F9.1°C 39.4°F4.1°C 71% 7.6 mph W12.2 kmh W 11.4 mph18.3 kmh 29.65 in1004.1 mb 0.00 in0.0 mm 0.00 in0.0 mm 0.00 in0.0 mm
01:40 AM 48.4°F9.1°C 39.8°F4.3°C 72% 7.5 mph WNW12.1 kmh WNW 11.4 mph18.3 kmh 29.65 in1004.1 mb 0.00 in0.0 mm 0.00 in0.0 mm 0.00 in0.0 mm
01:50 AM 48.2°F9.0°C 39.6°F4.2°C 72% 7.1 mph WSW11.4 kmh WSW 12.1 mph19.5 kmh 29.65 in1004.1 mb 0.00 in0.0 mm 0.00 in0.0 mm 0.00 in0.0 mm
02:00 AM 48.2°F9.0°C 39.6°F4.2°C 72% 8.2 mph W13.2 kmh W 11.4 mph18.3 kmh 29.65 in1004.1 mb 0.00 in0.0 mm 0.00 in0.0 mm 0.00 in0.0 mm
02:10 AM 48.2°F9.0°C 39.6°F4.2°C 72% 9.3 mph W15.0 kmh W 14.5 mph23.3 kmh 29.64 in1003.7 mb 0.00 in0.0 mm 0.00 in0.0 mm 0.00 in0.0 mm
02:20 AM 47.8°F8.8°C 39.3°F4.1°C 72% 10.3 mph WNW16.6 kmh WNW 13.6 mph21.9 kmh 29.63 in1003.4 mb 0.00 in0.0 mm 0.00 in0.0 mm 0.00 in0.0 mm
02:30 AM 47.7°F8.7°C 39.1°F3.9°C 72% 8.3 mph W13.4 kmh W 10.7 mph17.2 kmh 29.62 in1003.0 mb 0.00 in0.0 mm 0.00 in0.0 mm 0.00 in0.0 mm
02:40 AM 47.7°F8.7°C 39.1°F3.9°C 72% 8.9 mph SW14.3 kmh SW 11.4 mph18.3 kmh 29.62 in1003.0 mb 0.00 in0.0 mm 0.00 in0.0 mm 0.00 in0.0 mm
02:50 AM 47.7°F8.7°C 39.4°F4.1°C 73% 9.8 mph WSW15.8 kmh WSW 15.2 mph24.5 kmh 29.61 in1002.7 mb 0.00 in0.0 mm 0.00 in0.0 mm 0.00 in0.0 mm
03:00 AM 47.7°F8.7°C 39.4°F4.1°C 73% 9.6 mph W15.4 kmh W 15.2 mph24.5 kmh 29.60 in1002.4 mb 0.00 in0.0 mm 0.00 in0.0 mm 0.00 in0.0 mm
03:10 AM 47.7°F8.7°C 39.4°F4.1°C 73% 7.0 mph SW11.3 kmh SW 10.7 mph17.2 kmh 29.60 in1002.4 mb 0.00 in0.0 mm 0.00 in0.0 mm 0.00 in0.0 mm
03:20 AM 47.8°F8.8°C 39.6°F4.2°C 73% 9.2 mph SW14.8 kmh SW 13.6 mph21.9 kmh 29.59 in1002.0 mb 0.00 in0.0 mm 0.00 in0.0 mm 0.00 in0.0 mm
03:30 AM 47.8°F8.8°C 39.6°F4.2°C 73% 7.9 mph W12.7 kmh W 11.4 mph18.3 kmh 29.57 in1001.4 mb 0.00 in0.0 mm 0.00 in0.0 mm 0.00 in0.0 mm
03:40 AM 48.0°F8.9°C 40.1°F4.5°C 74% 9.3 mph W15.0 kmh W 13.6 mph21.9 kmh 29.57 in1001.4 mb 0.00 in0.0 mm 0.00 in0.0 mm 0.00 in0.0 mm
03:50 AM 48.2°F9.0°C 40.3°F4.6°C 74% 11.3 mph S18.2 kmh S 15.2 mph24.5 kmh 29.56 in1001.0 mb 0.00 in0.0 mm 0.00 in0.0 mm 0.00 in0.0 mm
04:00 AM 48.2°F9.0°C 40.3°F4.6°C 74% 10.3 mph SW16.6 kmh SW 19.7 mph31.7 kmh 29.54 in1000.3 mb 0.00 in0.0 mm 0.00 in0.0 mm 0.00 in0.0 mm
04:10 AM 48.4°F9.1°C 40.5°F4.7°C 74% 13.4 mph W21.6 kmh W 18.3 mph29.5 kmh 29.52 in999.7 mb 0.00 in0.0 mm 0.00 in0.0 mm 0.00 in0.0 mm
04:20 AM 48.6°F9.2°C 40.3°F4.6°C 73% 11.7 mph WSW18.8 kmh WSW 18.3 mph29.5 kmh 29.52 in999.7 mb 0.00 in0.0 mm 0.00 in0.0 mm 0.00 in0.0 mm
04:30 AM 48.6°F9.2°C 40.7°F4.8°C 74% 13.2 mph W21.2 kmh W 18.3 mph29.5 kmh 29.52 in999.7 mb 0.01 in0.3 mm 0.06 in1.5 mm 0.01 in0.3 mm
04:40 AM 48.6°F9.2°C 41.0°F5.0°C 75% 12.0 mph WSW19.3 kmh WSW 18.3 mph29.5 kmh 29.51 in999.3 mb 0.01 in0.3 mm 0.00 in0.0 mm 0.01 in0.3 mm
04:50 AM 48.6°F9.2°C 41.3°F5.2°C 76% 12.3 mph WSW19.8 kmh WSW 15.2 mph24.5 kmh 29.50 in999.0 mb 0.01 in0.3 mm 0.00 in0.0 mm 0.01 in0.3 mm
05:00 AM 48.6°F9.2°C 41.7°F5.4°C 77% 12.4 mph WSW20.0 kmh WSW 15.9 mph25.6 kmh 29.50 in999.0 mb 0.01 in0.3 mm 0.00 in0.0 mm 0.01 in0.3 mm
05:10 AM 48.6°F9.2°C 42.0°F5.6°C 78% 13.3 mph WSW21.4 kmh WSW 17.4 mph28.0 kmh 29.49 in998.6 mb 0.01 in0.3 mm 0.00 in0.0 mm 0.01 in0.3 mm
05:20 AM 48.6°F9.2°C 42.4°F5.8°C 79% 10.7 mph WSW17.2 kmh WSW 16.8 mph27.0 kmh 29.48 in998.3 mb 0.01 in0.3 mm 0.00 in0.0 mm 0.01 in0.3 mm
05:30 AM 48.9°F9.4°C 42.7°F5.9°C 79% 13.8 mph W22.2 kmh W 17.4 mph28.0 kmh 29.47 in998.0 mb 0.00 in0.0 mm 0.00 in0.0 mm 0.01 in0.3 mm
05:40 AM 48.9°F9.4°C 42.4°F5.8°C 78% 13.8 mph SW22.2 kmh SW 20.6 mph33.2 kmh 29.47 in998.0 mb 0.00 in0.0 mm 0.00 in0.0 mm 0.01 in0.3 mm
05:50 AM 48.9°F9.4°C 42.4°F5.8°C 78% 12.2 mph WNW19.6 kmh WNW 16.8 mph27.0 kmh 29.48 in998.3 mb 0.00 in0.0 mm 0.00 in0.0 mm 0.01 in0.3 mm
06:00 AM 48.9°F9.4°C 42.7°F5.9°C 79% 13.1 mph W21.1 kmh W 16.8 mph27.0 kmh 29.47 in998.0 mb 0.00 in0.0 mm 0.00 in0.0 mm 0.01 in0.3 mm
06:10 AM 49.1°F9.5°C 42.9°F6.1°C 79% 11.3 mph SW18.2 kmh SW 15.2 mph24.5 kmh 29.46 in997.6 mb 0.01 in0.3 mm 0.06 in1.5 mm 0.02 in0.5 mm
06:20 AM 49.3°F9.6°C 43.1°F6.2°C 79% 13.9 mph WSW22.4 kmh WSW 22.1 mph35.6 kmh 29.46 in997.6 mb 0.01 in0.3 mm 0.00 in0.0 mm 0.02 in0.5 mm
06:30 AM 49.3°F9.6°C 43.1°F6.2°C 79% 13.9 mph WSW22.4 kmh WSW 19.0 mph30.6 kmh 29.45 in997.3 mb 0.01 in0.3 mm 0.00 in0.0 mm 0.02 in0.5 mm
06:40 AM 49.3°F9.6°C 43.4°F6.3°C 80% 13.4 mph NNE21.6 kmh NNE 19.0 mph30.6 kmh 29.46 in997.6 mb 0.01 in0.3 mm 0.00 in0.0 mm 0.02 in0.5 mm
06:50 AM 49.5°F9.7°C 43.6°F6.4°C 80% 13.4 mph WNW21.6 kmh WNW 17.4 mph28.0 kmh 29.45 in997.3 mb 0.02 in0.5 mm 0.06 in1.5 mm 0.04 in1.0 mm
07:00 AM 49.6°F9.8°C 43.7°F6.5°C 80% 13.2 mph WSW21.2 kmh WSW 20.6 mph33.2 kmh 29.45 in997.3 mb 0.02 in0.5 mm 0.00 in0.0 mm 0.04 in1.0 mm
07:10 AM 49.6°F9.8°C 43.7°F6.5°C 80% 13.6 mph WSW21.9 kmh WSW 19.0 mph30.6 kmh 29.46 in997.6 mb 0.01 in0.3 mm 0.00 in0.0 mm 0.04 in1.0 mm
07:20 AM 49.8°F9.9°C 43.9°F6.6°C 80% 11.7 mph WSW18.8 kmh WSW 15.9 mph25.6 kmh 29.46 in997.6 mb 0.01 in0.3 mm 0.00 in0.0 mm 0.04 in1.0 mm
07:30 AM 50.0°F10.0°C 44.1°F6.7°C 80% 13.1 mph SW21.1 kmh SW 20.6 mph33.2 kmh 29.46 in997.6 mb 0.01 in0.3 mm 0.00 in0.0 mm 0.04 in1.0 mm
07:40 AM 50.0°F10.0°C 44.1°F6.7°C 80% 11.9 mph NNW19.2 kmh NNW 18.3 mph29.5 kmh 29.46 in997.6 mb 0.01 in0.3 mm 0.00 in0.0 mm 0.05 in1.3 mm
07:50 AM 50.2°F10.1°C 44.3°F6.8°C 80% 12.7 mph W20.4 kmh W 20.6 mph33.2 kmh 29.46 in997.6 mb 0.01 in0.3 mm 0.00 in0.0 mm 0.05 in1.3 mm
08:00 AM 50.4°F10.2°C 44.8°F7.1°C 81% 14.3 mph N23.0 kmh N 17.4 mph28.0 kmh 29.45 in997.3 mb 0.02 in0.5 mm 0.01 in0.3 mm 0.06 in1.5 mm
08:10 AM 50.5°F10.3°C 44.9°F7.2°C 81% 12.7 mph NW20.4 kmh NW 20.6 mph33.2 kmh 29.46 in997.6 mb 0.02 in0.5 mm 0.00 in0.0 mm 0.06 in1.5 mm
08:20 AM 50.7°F10.4°C 45.1°F7.3°C 81% 14.5 mph NW23.3 kmh NW 23.5 mph37.8 kmh 29.46 in997.6 mb 0.04 in1.0 mm 0.12 in3.0 mm 0.07 in1.8 mm
08:30 AM 50.9°F10.5°C 45.3°F7.4°C 81% 13.6 mph NW21.9 kmh NW 19.0 mph30.6 kmh 29.45 in997.3 mb 0.04 in1.0 mm 0.00 in0.0 mm 0.07 in1.8 mm
08:40 AM 51.3°F10.7°C 45.6°F7.6°C 81% 12.7 mph N20.4 kmh N 20.6 mph33.2 kmh 29.45 in997.3 mb 0.02 in0.5 mm 0.00 in0.0 mm 0.07 in1.8 mm
08:50 AM 51.4°F10.8°C 45.8°F7.7°C 81% 13.7 mph NNW22.0 kmh NNW 19.0 mph30.6 kmh 29.45 in997.3 mb 0.02 in0.5 mm 0.00 in0.0 mm 0.07 in1.8 mm
09:00 AM 51.8°F11.0°C 46.2°F7.9°C 81% 12.2 mph W19.6 kmh W 21.3 mph34.3 kmh 29.46 in997.6 mb 0.01 in0.3 mm 0.00 in0.0 mm 0.07 in1.8 mm
09:10 AM 52.3°F11.3°C 46.7°F8.2°C 81% 14.0 mph WNW22.5 kmh WNW 21.3 mph34.3 kmh 29.45 in997.3 mb 0.01 in0.3 mm 0.00 in0.0 mm 0.07 in1.8 mm
09:20 AM 52.3°F11.3°C 46.7°F8.2°C 81% 13.9 mph W22.4 kmh W 18.3 mph29.5 kmh 29.46 in997.6 mb 0.00 in0.0 mm 0.00 in0.0 mm 0.07 in1.8 mm
09:30 AM 52.3°F11.3°C 46.7°F8.2°C 81% 13.5 mph NW21.7 kmh NW 17.4 mph28.0 kmh 29.46 in997.6 mb 0.00 in0.0 mm 0.00 in0.0 mm 0.07 in1.8 mm
09:40 AM 52.5°F11.4°C 46.9°F8.3°C 81% 12.4 mph WNW20.0 kmh WNW 19.0 mph30.6 kmh 29.45 in997.3 mb 0.00 in0.0 mm 0.00 in0.0 mm 0.07 in1.8 mm
09:50 AM 52.5°F11.4°C 46.9°F8.3°C 81% 13.4 mph NW21.6 kmh NW 16.8 mph27.0 kmh 29.45 in997.3 mb 0.00 in0.0 mm 0.00 in0.0 mm 0.07 in1.8 mm
10:00 AM 52.7°F11.5°C 47.4°F8.6°C 82% 14.2 mph WNW22.9 kmh WNW 20.6 mph33.2 kmh 29.44 in997.0 mb 0.00 in0.0 mm 0.00 in0.0 mm 0.07 in1.8 mm
10:10 AM 53.1°F11.7°C 47.4°F8.6°C 81% 13.3 mph NW21.4 kmh NW 16.8 mph27.0 kmh 29.45 in997.3 mb 0.01 in0.3 mm 0.06 in1.5 mm 0.08 in2.0 mm
10:20 AM 53.8°F12.1°C 48.1°F8.9°C 81% 16.8 mph WNW27.0 kmh WNW 22.1 mph35.6 kmh 29.45 in997.3 mb 0.01 in0.3 mm 0.00 in0.0 mm 0.08 in2.0 mm
10:30 AM 54.1°F12.3°C 48.1°F8.9°C 80% 15.5 mph NW24.9 kmh NW 20.6 mph33.2 kmh 29.45 in997.3 mb 0.01 in0.3 mm 0.00 in0.0 mm 0.08 in2.0 mm
10:40 AM 54.7°F12.6°C 46.9°F8.3°C 75% 18.8 mph W30.3 kmh W 22.1 mph35.6 kmh 29.45 in997.3 mb 0.01 in0.3 mm 0.00 in0.0 mm 0.08 in2.0 mm
10:50 AM 54.5°F12.5°C 46.0°F7.8°C 73% 17.6 mph NNW28.3 kmh NNW 22.1 mph35.6 kmh 29.45 in997.3 mb 0.01 in0.3 mm 0.00 in0.0 mm 0.08 in2.0 mm
11:00 AM 55.2°F12.9°C 47.1°F8.4°C 74% 16.7 mph NW26.9 kmh NW 20.6 mph33.2 kmh 29.46 in997.6 mb 0.01 in0.3 mm 0.00 in0.0 mm 0.08 in2.0 mm
11:10 AM 54.9°F12.7°C 46.0°F7.8°C 72% 19.6 mph NW31.5 kmh NW 22.8 mph36.7 kmh 29.45 in997.3 mb 0.00 in0.0 mm 0.00 in0.0 mm 0.08 in2.0 mm
11:20 AM 55.8°F13.2°C 46.5°F8.1°C 71% 19.1 mph NW30.7 kmh NW 24.4 mph39.3 kmh 29.46 in997.6 mb 0.00 in0.0 mm 0.00 in0.0 mm 0.08 in2.0 mm
11:30 AM 55.2°F12.9°C 46.0°F7.8°C 71% 20.0 mph WNW32.2 kmh WNW 25.1 mph40.4 kmh 29.46 in997.6 mb 0.00 in0.0 mm 0.00 in0.0 mm 0.08 in2.0 mm
11:40 AM 55.9°F13.3°C 46.7°F8.2°C 71% 16.9 mph NW27.2 kmh NW 22.1 mph35.6 kmh 29.46 in997.6 mb 0.00 in0.0 mm 0.00 in0.0 mm 0.08 in2.0 mm
11:50 AM 54.9°F12.7°C 45.6°F7.6°C 71% 16.4 mph WNW26.4 kmh WNW 23.5 mph37.8 kmh 29.47 in998.0 mb 0.00 in0.0 mm 0.00 in0.0 mm 0.08 in2.0 mm
12:00 PM 54.9°F12.7°C 46.0°F7.8°C 72% 20.0 mph NW32.2 kmh NW 27.3 mph43.9 kmh 29.46 in997.6 mb 0.00 in0.0 mm 0.00 in0.0 mm 0.08 in2.0 mm
12:10 PM 55.9°F13.3°C 46.7°F8.2°C 71% 15.8 mph NW25.4 kmh NW 22.1 mph35.6 kmh 29.46 in997.6 mb 0.00 in0.0 mm 0.00 in0.0 mm 0.08 in2.0 mm
12:20 PM 55.8°F13.2°C 46.1°F7.8°C 70% 15.9 mph NW25.6 kmh NW 22.1 mph35.6 kmh 29.47 in998.0 mb 0.00 in0.0 mm 0.00 in0.0 mm 0.08 in2.0 mm
12:30 PM 55.6°F13.1°C 46.3°F7.9°C 71% 14.0 mph WNW22.5 kmh WNW 18.3 mph29.5 kmh 29.47 in998.0 mb 0.00 in0.0 mm 0.00 in0.0 mm 0.08 in2.0 mm
12:40 PM 54.5°F12.5°C 45.7°F7.6°C 72% 15.0 mph NW24.1 kmh NW 24.4 mph39.3 kmh 29.47 in998.0 mb 0.00 in0.0 mm 0.00 in0.0 mm 0.08 in2.0 mm
12:50 PM 54.0°F12.2°C 47.3°F8.5°C 78% 13.0 mph NW20.9 kmh NW 16.8 mph27.0 kmh 29.48 in998.3 mb 0.00 in0.0 mm 0.00 in0.0 mm 0.08 in2.0 mm
01:00 PM 53.8°F12.1°C 47.8°F8.8°C 80% 11.0 mph NW17.7 kmh NW 15.2 mph24.5 kmh 29.48 in998.3 mb 0.00 in0.0 mm 0.00 in0.0 mm 0.08 in2.0 mm
01:10 PM 52.7°F11.5°C 46.7°F8.2°C 80% 6.9 mph NW11.1 kmh NW 12.1 mph19.5 kmh 29.49 in998.6 mb 0.01 in0.3 mm 0.06 in1.5 mm 0.09 in2.3 mm
01:20 PM 52.9°F11.6°C 46.9°F8.3°C 80% 12.1 mph NW19.5 kmh NW 19.7 mph31.7 kmh 29.49 in998.6 mb 0.01 in0.3 mm 0.00 in0.0 mm 0.09 in2.3 mm
01:30 PM 55.0°F12.8°C 46.6°F8.1°C 73% 10.4 mph NW16.7 kmh NW 14.5 mph23.3 kmh 29.48 in998.3 mb 0.02 in0.5 mm 0.06 in1.5 mm 0.11 in2.8 mm
01:52 PM 55.4°F13.0°C 46.2°F7.9°C 71% 10.9 mph NW17.5 kmh NW 14.5 mph23.3 kmh 29.49 in998.6 mb 0.02 in0.5 mm 0.00 in0.0 mm 0.11 in2.8 mm
02:00 PM 55.2°F12.9°C 45.6°F7.6°C 70% 12.3 mph NW19.8 kmh NW 19.7 mph31.7 kmh 29.50 in999.0 mb 0.02 in0.5 mm 0.00 in0.0 mm 0.11 in2.8 mm
02:10 PM 55.0°F12.8°C 45.4°F7.4°C 70% 12.5 mph NW20.1 kmh NW 15.9 mph25.6 kmh 29.50 in999.0 mb 0.01 in0.3 mm 0.00 in0.0 mm 0.11 in2.8 mm
02:20 PM 55.4°F13.0°C 45.0°F7.2°C 68% 10.9 mph NW17.5 kmh NW 14.5 mph23.3 kmh 29.50 in999.0 mb 0.01 in0.3 mm 0.00 in0.0 mm 0.11 in2.8 mm
02:30 PM 55.4°F13.0°C 44.2°F6.8°C 66% 11.5 mph WNW18.5 kmh WNW 15.9 mph25.6 kmh 29.51 in999.3 mb 0.00 in0.0 mm 0.00 in0.0 mm 0.11 in2.8 mm
02:40 PM 55.9°F13.3°C 44.4°F6.9°C 65% 13.7 mph NW22.0 kmh NW 16.8 mph27.0 kmh 29.50 in999.0 mb 0.00 in0.0 mm 0.00 in0.0 mm 0.11 in2.8 mm
02:50 PM 55.9°F13.3°C 43.9°F6.6°C 64% 11.6 mph WNW18.7 kmh WNW 16.8 mph27.0 kmh 29.51 in999.3 mb 0.00 in0.0 mm 0.00 in0.0 mm 0.11 in2.8 mm
03:00 PM 56.1°F13.4°C 43.7°F6.5°C 63% 11.7 mph NW18.8 kmh NW 15.2 mph24.5 kmh 29.51 in999.3 mb 0.00 in0.0 mm 0.00 in0.0 mm 0.11 in2.8 mm
03:10 PM 56.1°F13.4°C 42.9°F6.1°C 61% 13.4 mph NW21.6 kmh NW 19.0 mph30.6 kmh 29.52 in999.7 mb 0.00 in0.0 mm 0.00 in0.0 mm 0.11 in2.8 mm
03:20 PM 56.1°F13.4°C 42.4°F5.8°C 60% 12.5 mph NW20.1 kmh NW 19.0 mph30.6 kmh 29.52 in999.7 mb 0.00 in0.0 mm 0.00 in0.0 mm 0.11 in2.8 mm
03:30 PM 55.9°F13.3°C 42.3°F5.7°C 60% 12.5 mph NW20.1 kmh NW 19.0 mph30.6 kmh 29.52 in999.7 mb 0.00 in0.0 mm 0.00 in0.0 mm 0.11 in2.8 mm
03:40 PM 55.8°F13.2°C 42.1°F5.6°C 60% 12.2 mph NW19.6 kmh NW 15.9 mph25.6 kmh 29.52 in999.7 mb 0.00 in0.0 mm 0.00 in0.0 mm 0.11 in2.8 mm
03:50 PM 55.8°F13.2°C 42.1°F5.6°C 60% 12.5 mph NW20.1 kmh NW 15.9 mph25.6 kmh 29.52 in999.7 mb 0.00 in0.0 mm 0.00 in0.0 mm 0.11 in2.8 mm
04:00 PM 55.4°F13.0°C 42.2°F5.7°C 61% 10.5 mph NW16.9 kmh NW 15.2 mph24.5 kmh 29.53 in1000.0 mb 0.00 in0.0 mm 0.00 in0.0 mm 0.11 in2.8 mm
04:10 PM 54.7°F12.6°C 41.9°F5.5°C 62% 14.4 mph NW23.2 kmh NW 19.0 mph30.6 kmh 29.53 in1000.0 mb 0.00 in0.0 mm 0.00 in0.0 mm 0.11 in2.8 mm
04:20 PM 54.7°F12.6°C 42.3°F5.7°C 63% 10.4 mph NW16.7 kmh NW 16.8 mph27.0 kmh 29.53 in1000.0 mb 0.00 in0.0 mm 0.00 in0.0 mm 0.11 in2.8 mm
04:30 PM 54.5°F12.5°C 42.2°F5.7°C 63% 10.5 mph NW16.9 kmh NW 13.6 mph21.9 kmh 29.53 in1000.0 mb 0.00 in0.0 mm 0.00 in0.0 mm 0.11 in2.8 mm
04:40 PM 54.3°F12.4°C 43.2°F6.2°C 66% 10.1 mph NW16.3 kmh NW 15.2 mph24.5 kmh 29.53 in1000.0 mb 0.00 in0.0 mm 0.00 in0.0 mm 0.11 in2.8 mm
04:50 PM 54.1°F12.3°C 43.4°F6.3°C 67% 8.4 mph NW13.5 kmh NW 11.4 mph18.3 kmh 29.53 in1000.0 mb 0.00 in0.0 mm 0.00 in0.0 mm 0.11 in2.8 mm
05:00 PM 54.0°F12.2°C 42.9°F6.1°C 66% 11.5 mph WNW18.5 kmh WNW 14.5 mph23.3 kmh 29.54 in1000.3 mb 0.00 in0.0 mm 0.00 in0.0 mm 0.11 in2.8 mm
05:10 PM 54.0°F12.2°C 42.9°F6.1°C 66% 10.7 mph NW17.2 kmh NW 15.2 mph24.5 kmh 29.54 in1000.3 mb 0.00 in0.0 mm 0.00 in0.0 mm 0.11 in2.8 mm
05:20 PM 53.8°F12.1°C 42.7°F5.9°C 66% 8.5 mph NW13.7 kmh NW 15.2 mph24.5 kmh 29.54 in1000.3 mb 0.00 in0.0 mm 0.00 in0.0 mm 0.11 in2.8 mm
05:30 PM 53.6°F12.0°C 43.3°F6.3°C 68% 8.6 mph NW13.8 kmh NW 15.2 mph24.5 kmh 29.55 in1000.7 mb 0.00 in0.0 mm 0.00 in0.0 mm 0.11 in2.8 mm
05:40 PM 53.6°F12.0°C 43.7°F6.5°C 69% 9.6 mph NW15.4 kmh NW 12.1 mph19.5 kmh 29.55 in1000.7 mb 0.00 in0.0 mm 0.00 in0.0 mm 0.11 in2.8 mm
05:50 PM 53.4°F11.9°C 43.9°F6.6°C 70% 9.1 mph NW14.6 kmh NW 13.0 mph20.9 kmh 29.55 in1000.7 mb 0.00 in0.0 mm 0.00 in0.0 mm 0.11 in2.8 mm
06:00 PM 53.4°F11.9°C 43.9°F6.6°C 70% 5.7 mph NW9.2 kmh NW 8.3 mph13.4 kmh 29.55 in1000.7 mb 0.00 in0.0 mm 0.00 in0.0 mm 0.11 in2.8 mm
06:10 PM 53.2°F11.8°C 43.7°F6.5°C 70% 8.1 mph WNW13.0 kmh WNW 11.4 mph18.3 kmh 29.57 in1001.4 mb 0.00 in0.0 mm 0.00 in0.0 mm 0.11 in2.8 mm
06:20 PM 53.2°F11.8°C 44.1°F6.7°C 71% 8.0 mph NW12.9 kmh NW 18.3 mph29.5 kmh 29.57 in1001.4 mb 0.00 in0.0 mm 0.00 in0.0 mm 0.11 in2.8 mm
06:30 PM 53.1°F11.7°C 43.9°F6.6°C 71% 6.9 mph WNW11.1 kmh WNW 9.8 mph15.8 kmh 29.57 in1001.4 mb 0.00 in0.0 mm 0.00 in0.0 mm 0.11 in2.8 mm
06:40 PM 53.1°F11.7°C 43.9°F6.6°C 71% 7.6 mph NW12.2 kmh NW 12.1 mph19.5 kmh 29.57 in1001.4 mb 0.00 in0.0 mm 0.00 in0.0 mm 0.11 in2.8 mm
06:50 PM 53.1°F11.7°C 44.3°F6.8°C 72% 9.4 mph NW15.1 kmh NW 11.4 mph18.3 kmh 29.56 in1001.0 mb 0.00 in0.0 mm 0.00 in0.0 mm 0.11 in2.8 mm
07:00 PM 52.9°F11.6°C 44.1°F6.7°C 72% 6.2 mph WNW10.0 kmh WNW 10.7 mph17.2 kmh 29.57 in1001.4 mb 0.00 in0.0 mm 0.00 in0.0 mm 0.11 in2.8 mm
07:10 PM 52.9°F11.6°C 44.1°F6.7°C 72% 7.2 mph NW11.6 kmh NW 8.3 mph13.4 kmh 29.57 in1001.4 mb 0.00 in0.0 mm 0.00 in0.0 mm 0.11 in2.8 mm
07:20 PM 52.7°F11.5°C 43.9°F6.6°C 72% 5.8 mph NW9.3 kmh NW 8.3 mph13.4 kmh 29.57 in1001.4 mb 0.00 in0.0 mm 0.00 in0.0 mm 0.11 in2.8 mm
07:30 PM 52.5°F11.4°C 44.1°F6.7°C 73% 8.5 mph NW13.7 kmh NW 11.4 mph18.3 kmh 29.58 in1001.7 mb 0.00 in0.0 mm 0.00 in0.0 mm 0.11 in2.8 mm
07:40 PM 52.2°F11.2°C 44.5°F6.9°C 75% 7.3 mph NW11.7 kmh NW 9.2 mph14.8 kmh 29.57 in1001.4 mb 0.00 in0.0 mm 0.00 in0.0 mm 0.11 in2.8 mm
07:50 PM 51.8°F11.0°C 44.5°F6.9°C 76% 6.0 mph WSW9.7 kmh WSW 11.4 mph18.3 kmh 29.57 in1001.4 mb 0.00 in0.0 mm 0.00 in0.0 mm 0.11 in2.8 mm
08:00 PM 51.6°F10.9°C 45.0°F7.2°C 78% 4.7 mph SW7.6 kmh SW 6.9 mph11.1 kmh 29.57 in1001.4 mb 0.00 in0.0 mm 0.00 in0.0 mm 0.11 in2.8 mm
08:10 PM 51.6°F10.9°C 45.7°F7.6°C 80% 5.2 mph SW8.4 kmh SW 7.6 mph12.2 kmh 29.56 in1001.0 mb 0.00 in0.0 mm 0.00 in0.0 mm 0.11 in2.8 mm
08:20 PM 51.4°F10.8°C 45.8°F7.7°C 81% 2.2 mph WSW3.5 kmh WSW 5.4 mph8.7 kmh 29.56 in1001.0 mb 0.00 in0.0 mm 0.00 in0.0 mm 0.11 in2.8 mm
08:30 PM 51.4°F10.8°C 46.1°F7.8°C 82% 2.8 mph WSW4.5 kmh WSW 4.5 mph7.2 kmh 29.57 in1001.4 mb 0.00 in0.0 mm 0.00 in0.0 mm 0.11 in2.8 mm
08:40 PM 51.4°F10.8°C 46.5°F8.1°C 83% 3.5 mph SW5.6 kmh SW 5.4 mph8.7 kmh 29.57 in1001.4 mb 0.00 in0.0 mm 0.00 in0.0 mm 0.11 in2.8 mm
08:50 PM 51.6°F10.9°C 46.9°F8.3°C 84% 4.1 mph SW6.6 kmh SW 6.0 mph9.7 kmh 29.57 in1001.4 mb 0.00 in0.0 mm 0.00 in0.0 mm 0.11 in2.8 mm
09:00 PM 51.8°F11.0°C 47.4°F8.6°C 85% 5.0 mph WSW8.0 kmh WSW 8.3 mph13.4 kmh 29.56 in1001.0 mb 0.00 in0.0 mm 0.00 in0.0 mm 0.11 in2.8 mm
09:10 PM 51.8°F11.0°C 47.4°F8.6°C 85% 5.8 mph W9.3 kmh W 9.2 mph14.8 kmh 29.56 in1001.0 mb 0.00 in0.0 mm 0.00 in0.0 mm 0.11 in2.8 mm
09:20 PM 51.8°F11.0°C 47.4°F8.6°C 85% 5.7 mph SW9.2 kmh SW 8.3 mph13.4 kmh 29.57 in1001.4 mb 0.01 in0.3 mm 0.06 in1.5 mm 0.12 in3.0 mm
09:30 PM 52.0°F11.1°C 47.6°F8.7°C 85% 7.1 mph W11.4 kmh W 13.0 mph20.9 kmh 29.56 in1001.0 mb 0.01 in0.3 mm 0.00 in0.0 mm 0.12 in3.0 mm
09:40 PM 52.0°F11.1°C 47.6°F8.7°C 85% 6.2 mph WSW10.0 kmh WSW 9.8 mph15.8 kmh 29.56 in1001.0 mb 0.01 in0.3 mm 0.00 in0.0 mm 0.12 in3.0 mm
09:50 PM 52.0°F11.1°C 47.6°F8.7°C 85% 8.6 mph W13.8 kmh W 13.6 mph21.9 kmh 29.56 in1001.0 mb 0.01 in0.3 mm 0.00 in0.0 mm 0.12 in3.0 mm
10:00 PM 52.2°F11.2°C 47.8°F8.8°C 85% 6.3 mph S10.1 kmh S 10.7 mph17.2 kmh 29.55 in1000.7 mb 0.01 in0.3 mm 0.00 in0.0 mm 0.12 in3.0 mm
10:10 PM 52.3°F11.3°C 48.0°F8.9°C 85% 7.7 mph WSW12.4 kmh WSW 10.7 mph17.2 kmh 29.55 in1000.7 mb 0.01 in0.3 mm 0.00 in0.0 mm 0.12 in3.0 mm
10:20 PM 52.3°F11.3°C 47.7°F8.7°C 84% 11.0 mph WSW17.7 kmh WSW 15.9 mph25.6 kmh 29.55 in1000.7 mb 0.00 in0.0 mm 0.00 in0.0 mm 0.12 in3.0 mm
10:30 PM 52.5°F11.4°C 47.8°F8.8°C 84% 10.3 mph SW16.6 kmh SW 13.6 mph21.9 kmh 29.55 in1000.7 mb 0.00 in0.0 mm 0.00 in0.0 mm 0.12 in3.0 mm
10:40 PM 52.3°F11.3°C 47.3°F8.5°C 83% 11.2 mph WSW18.0 kmh WSW 14.5 mph23.3 kmh 29.56 in1001.0 mb 0.00 in0.0 mm 0.00 in0.0 mm 0.12 in3.0 mm
10:50 PM 52.3°F11.3°C 47.3°F8.5°C 83% 10.3 mph SW16.6 kmh SW 15.2 mph24.5 kmh 29.56 in1001.0 mb 0.00 in0.0 mm 0.00 in0.0 mm 0.12 in3.0 mm
11:00 PM 52.3°F11.3°C 47.3°F8.5°C 83% 10.3 mph W16.6 kmh W 13.6 mph21.9 kmh 29.56 in1001.0 mb 0.00 in0.0 mm 0.00 in0.0 mm 0.12 in3.0 mm
11:10 PM 52.3°F11.3°C 47.3°F8.5°C 83% 11.2 mph SW18.0 kmh SW 19.0 mph30.6 kmh 29.56 in1001.0 mb 0.00 in0.0 mm 0.00 in0.0 mm 0.12 in3.0 mm
11:20 PM 52.3°F11.3°C 47.3°F8.5°C 83% 10.7 mph SW17.2 kmh SW 15.2 mph24.5 kmh 29.56 in1001.0 mb 0.00 in0.0 mm 0.00 in0.0 mm 0.12 in3.0 mm
11:30 PM 52.3°F11.3°C 47.3°F8.5°C 83% 12.1 mph SSW19.5 kmh SSW 15.2 mph24.5 kmh 29.56 in1001.0 mb 0.00 in0.0 mm 0.00 in0.0 mm 0.12 in3.0 mm
11:40 PM 52.5°F11.4°C 47.5°F8.6°C 83% 9.9 mph WSW15.9 kmh WSW 15.2 mph24.5 kmh 29.56 in1001.0 mb 0.00 in0.0 mm 0.00 in0.0 mm 0.12 in3.0 mm
11:50 PM 52.5°F11.4°C 47.5°F8.6°C 83% 9.5 mph WSW15.3 kmh WSW 15.9 mph25.6 kmh 29.55 in1000.7 mb 0.00 in0.0 mm 0.00 in0.0 mm 0.12 in3.0 mm